sensor_id;sensor_type;location;lat;lon;timestamp;P1;durP1;ratioP1;P2;durP2;ratioP2
26484;SDS011;18083;50.560;7.262;2022-07-04T00:01:47;4.15;;;1.82;;
26484;SDS011;18083;50.560;7.262;2022-07-04T00:04:14;2.22;;;1.62;;
26484;SDS011;18083;50.560;7.262;2022-07-04T00:06:41;2.52;;;1.80;;
26484;SDS011;18083;50.560;7.262;2022-07-04T00:09:09;1.98;;;1.60;;
26484;SDS011;18083;50.560;7.262;2022-07-04T00:11:36;2.10;;;1.95;;
26484;SDS011;18083;50.560;7.262;2022-07-04T00:14:03;6.83;;;1.50;;
26484;SDS011;18083;50.560;7.262;2022-07-04T00:16:31;3.00;;;1.60;;
26484;SDS011;18083;50.560;7.262;2022-07-04T00:18:58;5.65;;;1.98;;
26484;SDS011;18083;50.560;7.262;2022-07-04T00:21:25;4.95;;;2.00;;
26484;SDS011;18083;50.560;7.262;2022-07-04T00:23:53;3.37;;;2.20;;
26484;SDS011;18083;50.560;7.262;2022-07-04T00:26:20;2.83;;;1.90;;
26484;SDS011;18083;50.560;7.262;2022-07-04T00:28:47;2.42;;;1.67;;
26484;SDS011;18083;50.560;7.262;2022-07-04T00:31:15;3.33;;;2.10;;
26484;SDS011;18083;50.560;7.262;2022-07-04T00:33:42;3.50;;;1.90;;
26484;SDS011;18083;50.560;7.262;2022-07-04T00:36:09;3.08;;;2.47;;
26484;SDS011;18083;50.560;7.262;2022-07-04T00:38:37;2.20;;;1.80;;
26484;SDS011;18083;50.560;7.262;2022-07-04T00:41:05;5.50;;;2.75;;
26484;SDS011;18083;50.560;7.262;2022-07-04T00:43:32;3.25;;;2.58;;
26484;SDS011;18083;50.560;7.262;2022-07-04T00:46:02;6.62;;;1.60;;
26484;SDS011;18083;50.560;7.262;2022-07-04T00:48:28;2.27;;;1.85;;
26484;SDS011;18083;50.560;7.262;2022-07-04T00:50:55;3.95;;;1.62;;
26484;SDS011;18083;50.560;7.262;2022-07-04T00:53:23;3.77;;;1.70;;
26484;SDS011;18083;50.560;7.262;2022-07-04T00:55:51;1.62;;;1.52;;
26484;SDS011;18083;50.560;7.262;2022-07-04T00:58:19;2.87;;;1.70;;
26484;SDS011;18083;50.560;7.262;2022-07-04T01:00:46;3.45;;;1.75;;
26484;SDS011;18083;50.560;7.262;2022-07-04T01:03:14;5.50;;;2.12;;
26484;SDS011;18083;50.560;7.262;2022-07-04T01:05:41;2.00;;;1.70;;
26484;SDS011;18083;50.560;7.262;2022-07-04T01:08:09;2.15;;;1.95;;
26484;SDS011;18083;50.560;7.262;2022-07-04T01:13:08;2.95;;;1.60;;
26484;SDS011;18083;50.560;7.262;2022-07-04T01:15:36;2.08;;;1.90;;
26484;SDS011;18083;50.560;7.262;2022-07-04T01:18:04;3.33;;;1.60;;
26484;SDS011;18083;50.560;7.262;2022-07-04T01:20:35;2.17;;;1.70;;
26484;SDS011;18083;50.560;7.262;2022-07-04T01:23:04;2.20;;;1.50;;
26484;SDS011;18083;50.560;7.262;2022-07-04T01:25:31;2.92;;;1.70;;
26484;SDS011;18083;50.560;7.262;2022-07-04T01:27:59;1.57;;;1.47;;
26484;SDS011;18083;50.560;7.262;2022-07-04T01:30:27;4.70;;;1.80;;
26484;SDS011;18083;50.560;7.262;2022-07-04T01:32:54;1.60;;;1.50;;
26484;SDS011;18083;50.560;7.262;2022-07-04T01:35:25;1.87;;;1.77;;
26484;SDS011;18083;50.560;7.262;2022-07-04T01:37:52;1.98;;;1.75;;
26484;SDS011;18083;50.560;7.262;2022-07-04T01:40:19;4.37;;;2.12;;
26484;SDS011;18083;50.560;7.262;2022-07-04T01:42:47;2.92;;;1.80;;
26484;SDS011;18083;50.560;7.262;2022-07-04T01:45:14;3.92;;;1.70;;
26484;SDS011;18083;50.560;7.262;2022-07-04T01:47:42;2.75;;;1.67;;
26484;SDS011;18083;50.560;7.262;2022-07-04T01:50:09;2.40;;;1.62;;
26484;SDS011;18083;50.560;7.262;2022-07-04T01:52:40;2.10;;;1.32;;
26484;SDS011;18083;50.560;7.262;2022-07-04T01:55:08;3.77;;;1.50;;
26484;SDS011;18083;50.560;7.262;2022-07-04T01:57:36;2.75;;;2.08;;
26484;SDS011;18083;50.560;7.262;2022-07-04T02:00:04;1.67;;;1.57;;
26484;SDS011;18083;50.560;7.262;2022-07-04T02:02:50;2.50;;;1.80;;
26484;SDS011;18083;50.560;7.262;2022-07-04T02:05:17;3.58;;;1.57;;
26484;SDS011;18083;50.560;7.262;2022-07-04T02:07:45;4.78;;;1.77;;
26484;SDS011;18083;50.560;7.262;2022-07-04T02:10:12;4.72;;;1.77;;
26484;SDS011;18083;50.560;7.262;2022-07-04T02:12:40;2.02;;;1.55;;
26484;SDS011;18083;50.560;7.262;2022-07-04T02:15:25;1.77;;;1.67;;
26484;SDS011;18083;50.560;7.262;2022-07-04T02:17:53;2.08;;;1.92;;
26484;SDS011;18083;50.560;7.262;2022-07-04T02:20:20;2.42;;;1.82;;
26484;SDS011;18083;50.560;7.262;2022-07-04T02:22:47;2.75;;;1.92;;
26484;SDS011;18083;50.560;7.262;2022-07-04T02:25:15;2.45;;;1.80;;
26484;SDS011;18083;50.560;7.262;2022-07-04T02:27:42;2.33;;;1.98;;
26484;SDS011;18083;50.560;7.262;2022-07-04T02:30:09;2.25;;;1.77;;
26484;SDS011;18083;50.560;7.262;2022-07-04T02:32:37;3.33;;;2.50;;
26484;SDS011;18083;50.560;7.262;2022-07-04T02:35:05;3.75;;;2.37;;
26484;SDS011;18083;50.560;7.262;2022-07-04T02:37:33;4.20;;;2.15;;
26484;SDS011;18083;50.560;7.262;2022-07-04T02:40:00;6.10;;;1.95;;
26484;SDS011;18083;50.560;7.262;2022-07-04T02:42:31;3.42;;;2.33;;
26484;SDS011;18083;50.560;7.262;2022-07-04T02:44:58;1.92;;;1.82;;
26484;SDS011;18083;50.560;7.262;2022-07-04T02:47:26;3.20;;;2.12;;
26484;SDS011;18083;50.560;7.262;2022-07-04T02:49:53;3.65;;;1.77;;
26484;SDS011;18083;50.560;7.262;2022-07-04T02:52:21;2.22;;;1.82;;
26484;SDS011;18083;50.560;7.262;2022-07-04T02:54:48;5.85;;;2.02;;
26484;SDS011;18083;50.560;7.262;2022-07-04T02:57:18;2.00;;;1.80;;
26484;SDS011;18083;50.560;7.262;2022-07-04T02:59:45;3.55;;;2.08;;
26484;SDS011;18083;50.560;7.262;2022-07-04T03:02:13;4.50;;;2.10;;
26484;SDS011;18083;50.560;7.262;2022-07-04T03:04:40;4.20;;;1.80;;
26484;SDS011;18083;50.560;7.262;2022-07-04T03:07:07;2.27;;;2.08;;
26484;SDS011;18083;50.560;7.262;2022-07-04T03:09:35;5.03;;;2.17;;
26484;SDS011;18083;50.560;7.262;2022-07-04T03:12:02;4.50;;;1.57;;
26484;SDS011;18083;50.560;7.262;2022-07-04T03:14:29;2.55;;;2.35;;
26484;SDS011;18083;50.560;7.262;2022-07-04T03:16:57;2.05;;;1.95;;
26484;SDS011;18083;50.560;7.262;2022-07-04T03:19:24;2.27;;;1.82;;
26484;SDS011;18083;50.560;7.262;2022-07-04T03:21:52;1.90;;;1.80;;
26484;SDS011;18083;50.560;7.262;2022-07-04T03:24:19;2.27;;;1.80;;
26484;SDS011;18083;50.560;7.262;2022-07-04T03:26:46;5.80;;;2.00;;
26484;SDS011;18083;50.560;7.262;2022-07-04T03:29:14;6.35;;;2.55;;
26484;SDS011;18083;50.560;7.262;2022-07-04T03:31:41;4.20;;;2.08;;
26484;SDS011;18083;50.560;7.262;2022-07-04T03:34:08;3.62;;;2.10;;
26484;SDS011;18083;50.560;7.262;2022-07-04T03:36:36;5.05;;;2.67;;
26484;SDS011;18083;50.560;7.262;2022-07-04T03:39:03;7.05;;;2.12;;
26484;SDS011;18083;50.560;7.262;2022-07-04T03:41:31;2.98;;;2.02;;
26484;SDS011;18083;50.560;7.262;2022-07-04T03:43:58;3.22;;;2.00;;
26484;SDS011;18083;50.560;7.262;2022-07-04T03:46:25;2.85;;;2.40;;
26484;SDS011;18083;50.560;7.262;2022-07-04T03:48:53;4.45;;;2.58;;
26484;SDS011;18083;50.560;7.262;2022-07-04T03:51:22;3.72;;;2.05;;
26484;SDS011;18083;50.560;7.262;2022-07-04T03:53:49;3.22;;;2.02;;
26484;SDS011;18083;50.560;7.262;2022-07-04T03:56:16;3.00;;;2.50;;
26484;SDS011;18083;50.560;7.262;2022-07-04T03:58:44;2.20;;;2.08;;
26484;SDS011;18083;50.560;7.262;2022-07-04T04:01:13;4.97;;;2.15;;
26484;SDS011;18083;50.560;7.262;2022-07-04T04:03:40;3.27;;;2.70;;
26484;SDS011;18083;50.560;7.262;2022-07-04T04:06:25;4.95;;;3.08;;
26484;SDS011;18083;50.560;7.262;2022-07-04T04:08:53;2.15;;;2.00;;
26484;SDS011;18083;50.560;7.262;2022-07-04T04:11:20;3.20;;;2.20;;
26484;SDS011;18083;50.560;7.262;2022-07-04T04:13:48;4.90;;;2.00;;
26484;SDS011;18083;50.560;7.262;2022-07-04T04:16:17;2.58;;;2.20;;
26484;SDS011;18083;50.560;7.262;2022-07-04T04:18:45;3.92;;;2.35;;
26484;SDS011;18083;50.560;7.262;2022-07-04T04:21:12;4.17;;;3.02;;
26484;SDS011;18083;50.560;7.262;2022-07-04T04:23:39;4.28;;;2.25;;
26484;SDS011;18083;50.560;7.262;2022-07-04T04:26:07;5.65;;;2.22;;
26484;SDS011;18083;50.560;7.262;2022-07-04T04:28:34;6.62;;;2.80;;
26484;SDS011;18083;50.560;7.262;2022-07-04T04:31:01;2.62;;;2.42;;
26484;SDS011;18083;50.560;7.262;2022-07-04T04:33:29;10.18;;;2.65;;
26484;SDS011;18083;50.560;7.262;2022-07-04T04:35:56;4.87;;;3.15;;
26484;SDS011;18083;50.560;7.262;2022-07-04T04:38:24;6.17;;;3.00;;
26484;SDS011;18083;50.560;7.262;2022-07-04T04:40:51;2.12;;;2.02;;
26484;SDS011;18083;50.560;7.262;2022-07-04T04:43:19;2.75;;;2.45;;
26484;SDS011;18083;50.560;7.262;2022-07-04T04:45:46;3.58;;;1.82;;
26484;SDS011;18083;50.560;7.262;2022-07-04T04:48:13;2.12;;;1.90;;
26484;SDS011;18083;50.560;7.262;2022-07-04T04:50:41;5.22;;;2.65;;
26484;SDS011;18083;50.560;7.262;2022-07-04T04:53:17;7.03;;;2.27;;
26484;SDS011;18083;50.560;7.262;2022-07-04T04:55:43;3.55;;;2.27;;
26484;SDS011;18083;50.560;7.262;2022-07-04T04:58:15;5.30;;;2.00;;
26484;SDS011;18083;50.560;7.262;2022-07-04T05:00:48;6.45;;;2.85;;
26484;SDS011;18083;50.560;7.262;2022-07-04T05:03:17;5.08;;;2.58;;
26484;SDS011;18083;50.560;7.262;2022-07-04T05:05:51;2.33;;;2.12;;
26484;SDS011;18083;50.560;7.262;2022-07-04T05:08:22;2.92;;;1.90;;
26484;SDS011;18083;50.560;7.262;2022-07-04T05:16:17;3.42;;;1.90;;
26484;SDS011;18083;50.560;7.262;2022-07-04T05:18:45;2.27;;;2.00;;
26484;SDS011;18083;50.560;7.262;2022-07-04T05:21:12;3.45;;;2.02;;
26484;SDS011;18083;50.560;7.262;2022-07-04T05:23:39;5.65;;;2.22;;
26484;SDS011;18083;50.560;7.262;2022-07-04T05:26:07;3.80;;;2.30;;
26484;SDS011;18083;50.560;7.262;2022-07-04T05:28:34;2.50;;;2.27;;
26484;SDS011;18083;50.560;7.262;2022-07-04T05:31:01;4.35;;;2.20;;
26484;SDS011;18083;50.560;7.262;2022-07-04T05:33:29;3.70;;;2.40;;
26484;SDS011;18083;50.560;7.262;2022-07-04T05:35:56;1.98;;;1.87;;
26484;SDS011;18083;50.560;7.262;2022-07-04T05:38:24;5.37;;;2.10;;
26484;SDS011;18083;50.560;7.262;2022-07-04T05:40:51;9.80;;;3.33;;
26484;SDS011;18083;50.560;7.262;2022-07-04T05:43:18;6.72;;;2.52;;
26484;SDS011;18083;50.560;7.262;2022-07-04T05:45:47;2.27;;;2.08;;
26484;SDS011;18083;50.560;7.262;2022-07-04T05:48:15;5.00;;;2.62;;
26484;SDS011;18083;50.560;7.262;2022-07-04T05:50:42;2.85;;;2.30;;
26484;SDS011;18083;50.560;7.262;2022-07-04T05:53:09;3.42;;;2.10;;
26484;SDS011;18083;50.560;7.262;2022-07-04T05:55:37;2.67;;;1.95;;
26484;SDS011;18083;50.560;7.262;2022-07-04T05:58:04;1.85;;;1.70;;
26484;SDS011;18083;50.560;7.262;2022-07-04T06:00:32;4.75;;;2.10;;
26484;SDS011;18083;50.560;7.262;2022-07-04T06:02:59;2.47;;;2.08;;
26484;SDS011;18083;50.560;7.262;2022-07-04T06:05:26;2.87;;;2.67;;
26484;SDS011;18083;50.560;7.262;2022-07-04T06:07:54;3.50;;;2.52;;
26484;SDS011;18083;50.560;7.262;2022-07-04T06:10:21;3.25;;;2.00;;
26484;SDS011;18083;50.560;7.262;2022-07-04T06:12:49;1.67;;;1.52;;
26484;SDS011;18083;50.560;7.262;2022-07-04T06:15:19;4.58;;;1.90;;
26484;SDS011;18083;50.560;7.262;2022-07-04T06:17:46;3.52;;;2.00;;
26484;SDS011;18083;50.560;7.262;2022-07-04T06:20:14;2.83;;;1.72;;
26484;SDS011;18083;50.560;7.262;2022-07-04T06:22:42;3.40;;;1.50;;
26484;SDS011;18083;50.560;7.262;2022-07-04T06:25:15;2.85;;;1.87;;
26484;SDS011;18083;50.560;7.262;2022-07-04T06:27:39;3.83;;;1.65;;
26484;SDS011;18083;50.560;7.262;2022-07-04T06:30:07;1.80;;;1.60;;
26484;SDS011;18083;50.560;7.262;2022-07-04T06:32:46;4.20;;;1.60;;
26484;SDS011;18083;50.560;7.262;2022-07-04T06:35:09;2.60;;;1.52;;
26484;SDS011;18083;50.560;7.262;2022-07-04T06:37:55;3.08;;;1.92;;
26484;SDS011;18083;50.560;7.262;2022-07-04T06:40:22;3.35;;;1.40;;
26484;SDS011;18083;50.560;7.262;2022-07-04T06:42:50;4.60;;;2.00;;
26484;SDS011;18083;50.560;7.262;2022-07-04T06:45:18;2.33;;;1.57;;
26484;SDS011;18083;50.560;7.262;2022-07-04T06:47:45;1.98;;;1.50;;
26484;SDS011;18083;50.560;7.262;2022-07-04T06:50:13;2.70;;;1.67;;
26484;SDS011;18083;50.560;7.262;2022-07-04T06:52:41;3.35;;;1.57;;
26484;SDS011;18083;50.560;7.262;2022-07-04T06:55:08;6.53;;;2.02;;
26484;SDS011;18083;50.560;7.262;2022-07-04T06:57:36;4.30;;;1.60;;
26484;SDS011;18083;50.560;7.262;2022-07-04T07:00:04;2.17;;;1.95;;
26484;SDS011;18083;50.560;7.262;2022-07-04T07:02:37;5.25;;;1.90;;
26484;SDS011;18083;50.560;7.262;2022-07-04T07:05:04;4.05;;;2.02;;
26484;SDS011;18083;50.560;7.262;2022-07-04T07:07:31;4.12;;;1.85;;
26484;SDS011;18083;50.560;7.262;2022-07-04T07:09:59;2.77;;;1.80;;
26484;SDS011;18083;50.560;7.262;2022-07-04T07:12:27;5.55;;;1.50;;
26484;SDS011;18083;50.560;7.262;2022-07-04T07:14:55;3.27;;;1.65;;
26484;SDS011;18083;50.560;7.262;2022-07-04T07:17:22;3.52;;;1.65;;
26484;SDS011;18083;50.560;7.262;2022-07-04T07:19:50;1.55;;;1.37;;
26484;SDS011;18083;50.560;7.262;2022-07-04T07:22:17;3.70;;;1.30;;
26484;SDS011;18083;50.560;7.262;2022-07-04T07:24:45;4.58;;;1.70;;
26484;SDS011;18083;50.560;7.262;2022-07-04T07:27:12;6.75;;;1.27;;
26484;SDS011;18083;50.560;7.262;2022-07-04T07:29:40;3.30;;;1.22;;
26484;SDS011;18083;50.560;7.262;2022-07-04T07:32:07;2.92;;;1.50;;
26484;SDS011;18083;50.560;7.262;2022-07-04T07:34:34;1.30;;;1.20;;
26484;SDS011;18083;50.560;7.262;2022-07-04T07:37:02;4.50;;;1.35;;
26484;SDS011;18083;50.560;7.262;2022-07-04T07:39:29;2.70;;;1.20;;
26484;SDS011;18083;50.560;7.262;2022-07-04T07:41:57;1.98;;;1.00;;
26484;SDS011;18083;50.560;7.262;2022-07-04T07:44:24;1.52;;;1.05;;
26484;SDS011;18083;50.560;7.262;2022-07-04T07:46:53;3.25;;;1.20;;
26484;SDS011;18083;50.560;7.262;2022-07-04T07:49:21;4.53;;;1.25;;
26484;SDS011;18083;50.560;7.262;2022-07-04T07:51:48;1.45;;;1.30;;
26484;SDS011;18083;50.560;7.262;2022-07-04T07:54:15;2.42;;;1.15;;
26484;SDS011;18083;50.560;7.262;2022-07-04T07:56:43;4.50;;;1.27;;
26484;SDS011;18083;50.560;7.262;2022-07-04T07:59:11;5.05;;;1.30;;
26484;SDS011;18083;50.560;7.262;2022-07-04T08:01:39;1.25;;;1.15;;
26484;SDS011;18083;50.560;7.262;2022-07-04T08:04:06;1.00;;;1.00;;
26484;SDS011;18083;50.560;7.262;2022-07-04T08:06:52;2.50;;;1.32;;
26484;SDS011;18083;50.560;7.262;2022-07-04T08:09:19;1.07;;;0.85;;
26484;SDS011;18083;50.560;7.262;2022-07-04T08:11:46;2.55;;;0.90;;
26484;SDS011;18083;50.560;7.262;2022-07-04T08:14:14;3.12;;;0.82;;
26484;SDS011;18083;50.560;7.262;2022-07-04T08:16:41;0.82;;;0.82;;
26484;SDS011;18083;50.560;7.262;2022-07-04T08:19:09;1.57;;;0.70;;
26484;SDS011;18083;50.560;7.262;2022-07-04T08:21:36;1.57;;;0.78;;
26484;SDS011;18083;50.560;7.262;2022-07-04T08:24:04;1.92;;;0.95;;
26484;SDS011;18083;50.560;7.262;2022-07-04T08:26:34;0.90;;;0.62;;
26484;SDS011;18083;50.560;7.262;2022-07-04T08:29:00;2.60;;;0.57;;
26484;SDS011;18083;50.560;7.262;2022-07-04T08:31:27;1.85;;;0.72;;
26484;SDS011;18083;50.560;7.262;2022-07-04T08:33:55;2.17;;;0.93;;
26484;SDS011;18083;50.560;7.262;2022-07-04T08:36:22;1.05;;;0.80;;
26484;SDS011;18083;50.560;7.262;2022-07-04T08:38:50;1.82;;;0.90;;
26484;SDS011;18083;50.560;7.262;2022-07-04T08:41:17;3.02;;;0.72;;
26484;SDS011;18083;50.560;7.262;2022-07-04T08:43:45;1.72;;;0.70;;
26484;SDS011;18083;50.560;7.262;2022-07-04T08:46:15;1.07;;;0.75;;
26484;SDS011;18083;50.560;7.262;2022-07-04T08:48:49;0.72;;;0.50;;
26484;SDS011;18083;50.560;7.262;2022-07-04T08:51:15;1.95;;;0.45;;
26484;SDS011;18083;50.560;7.262;2022-07-04T08:53:49;1.60;;;0.70;;
26484;SDS011;18083;50.560;7.262;2022-07-04T08:56:15;1.75;;;0.40;;
26484;SDS011;18083;50.560;7.262;2022-07-04T08:59:00;1.60;;;0.78;;
26484;SDS011;18083;50.560;7.262;2022-07-04T09:01:28;0.60;;;0.50;;
26484;SDS011;18083;50.560;7.262;2022-07-04T09:03:56;2.20;;;0.60;;
26484;SDS011;18083;50.560;7.262;2022-07-04T09:06:23;2.08;;;1.00;;
26484;SDS011;18083;50.560;7.262;2022-07-04T09:08:52;3.67;;;0.80;;
26484;SDS011;18083;50.560;7.262;2022-07-04T09:16:31;1.82;;;0.60;;
26484;SDS011;18083;50.560;7.262;2022-07-04T09:18:58;0.50;;;0.50;;
26484;SDS011;18083;50.560;7.262;2022-07-04T09:26:48;0.72;;;0.60;;
26484;SDS011;18083;50.560;7.262;2022-07-04T09:29:09;0.50;;;0.50;;
26484;SDS011;18083;50.560;7.262;2022-07-04T09:31:39;0.80;;;0.70;;
26484;SDS011;18083;50.560;7.262;2022-07-04T09:34:14;1.10;;;0.72;;
26484;SDS011;18083;50.560;7.262;2022-07-04T09:36:43;0.40;;;0.40;;
26484;SDS011;18083;50.560;7.262;2022-07-04T09:39:14;1.17;;;0.50;;
26484;SDS011;18083;50.560;7.262;2022-07-04T09:44:18;0.80;;;0.70;;
26484;SDS011;18083;50.560;7.262;2022-07-04T09:46:46;0.68;;;0.40;;
26484;SDS011;18083;50.560;7.262;2022-07-04T09:49:13;4.12;;;0.75;;
26484;SDS011;18083;50.560;7.262;2022-07-04T09:51:42;1.95;;;0.80;;
26484;SDS011;18083;50.560;7.262;2022-07-04T09:54:13;2.83;;;1.07;;
26484;SDS011;18083;50.560;7.262;2022-07-04T09:56:46;4.97;;;0.90;;
26484;SDS011;18083;50.560;7.262;2022-07-04T09:59:09;0.60;;;0.60;;
26484;SDS011;18083;50.560;7.262;2022-07-04T10:01:36;1.20;;;0.50;;
26484;SDS011;18083;50.560;7.262;2022-07-04T10:04:06;0.90;;;0.60;;
26484;SDS011;18083;50.560;7.262;2022-07-04T10:06:34;2.60;;;0.75;;
26484;SDS011;18083;50.560;7.262;2022-07-04T10:09:08;2.58;;;0.82;;
26484;SDS011;18083;50.560;7.262;2022-07-04T10:11:36;1.85;;;0.85;;
26484;SDS011;18083;50.560;7.262;2022-07-04T10:14:05;3.83;;;0.85;;
26484;SDS011;18083;50.560;7.262;2022-07-04T10:16:33;0.72;;;0.60;;
26484;SDS011;18083;50.560;7.262;2022-07-04T10:19:01;3.50;;;0.70;;
26484;SDS011;18083;50.560;7.262;2022-07-04T10:21:29;2.15;;;0.70;;
26484;SDS011;18083;50.560;7.262;2022-07-04T10:23:57;1.00;;;0.90;;
26484;SDS011;18083;50.560;7.262;2022-07-04T10:26:24;1.05;;;0.72;;
26484;SDS011;18083;50.560;7.262;2022-07-04T10:28:53;1.40;;;1.20;;
26484;SDS011;18083;50.560;7.262;2022-07-04T10:31:21;0.65;;;0.47;;
26484;SDS011;18083;50.560;7.262;2022-07-04T10:33:49;5.08;;;0.68;;
26484;SDS011;18083;50.560;7.262;2022-07-04T10:36:19;1.40;;;1.30;;
26484;SDS011;18083;50.560;7.262;2022-07-04T10:38:50;0.78;;;0.40;;
26484;SDS011;18083;50.560;7.262;2022-07-04T10:41:15;4.42;;;0.60;;
26484;SDS011;18083;50.560;7.262;2022-07-04T10:54:06;1.67;;;0.78;;
26484;SDS011;18083;50.560;7.262;2022-07-04T10:56:35;1.55;;;0.40;;
26484;SDS011;18083;50.560;7.262;2022-07-04T10:59:13;3.90;;;0.75;;
26484;SDS011;18083;50.560;7.262;2022-07-04T11:01:45;1.12;;;0.42;;
26484;SDS011;18083;50.560;7.262;2022-07-04T11:04:12;1.50;;;1.07;;
26484;SDS011;18083;50.560;7.262;2022-07-04T11:17:07;1.17;;;0.60;;
26484;SDS011;18083;50.560;7.262;2022-07-04T11:19:35;1.90;;;0.60;;
26484;SDS011;18083;50.560;7.262;2022-07-04T11:22:03;2.08;;;0.60;;
26484;SDS011;18083;50.560;7.262;2022-07-04T11:24:31;0.45;;;0.37;;
26484;SDS011;18083;50.560;7.262;2022-07-04T11:26:59;1.17;;;0.70;;
26484;SDS011;18083;50.560;7.262;2022-07-04T11:29:27;2.05;;;0.60;;
26484;SDS011;18083;50.560;7.262;2022-07-04T11:31:55;0.40;;;0.40;;
26484;SDS011;18083;50.560;7.262;2022-07-04T11:34:23;0.50;;;0.50;;
26484;SDS011;18083;50.560;7.262;2022-07-04T11:36:51;1.27;;;0.60;;
26484;SDS011;18083;50.560;7.262;2022-07-04T11:39:20;0.60;;;0.40;;
26484;SDS011;18083;50.560;7.262;2022-07-04T11:41:52;1.35;;;0.55;;
26484;SDS011;18083;50.560;7.262;2022-07-04T11:44:38;0.50;;;0.50;;
26484;SDS011;18083;50.560;7.262;2022-07-04T11:50:03;0.95;;;0.53;;
26484;SDS011;18083;50.560;7.262;2022-07-04T11:52:39;3.17;;;0.60;;
26484;SDS011;18083;50.560;7.262;2022-07-04T11:55:01;1.20;;;0.50;;
26484;SDS011;18083;50.560;7.262;2022-07-04T11:57:29;0.60;;;0.60;;
26484;SDS011;18083;50.560;7.262;2022-07-04T12:00:02;1.90;;;0.60;;
26484;SDS011;18083;50.560;7.262;2022-07-04T12:02:30;0.75;;;0.50;;
26484;SDS011;18083;50.560;7.262;2022-07-04T12:04:59;0.42;;;0.40;;
26484;SDS011;18083;50.560;7.262;2022-07-04T12:07:29;0.65;;;0.60;;
26484;SDS011;18083;50.560;7.262;2022-07-04T12:10:09;1.00;;;0.55;;
26484;SDS011;18083;50.560;7.262;2022-07-04T12:12:49;1.70;;;1.07;;
26484;SDS011;18083;50.560;7.262;2022-07-04T12:15:06;1.95;;;0.95;;
26484;SDS011;18083;50.560;7.262;2022-07-04T12:17:35;3.15;;;0.80;;
26484;SDS011;18083;50.560;7.262;2022-07-04T12:22:40;0.57;;;0.50;;
26484;SDS011;18083;50.560;7.262;2022-07-04T12:25:10;1.00;;;0.60;;
26484;SDS011;18083;50.560;7.262;2022-07-04T12:27:37;4.10;;;0.60;;
26484;SDS011;18083;50.560;7.262;2022-07-04T12:30:05;2.40;;;0.50;;
26484;SDS011;18083;50.560;7.262;2022-07-04T12:32:43;1.42;;;0.82;;
26484;SDS011;18083;50.560;7.262;2022-07-04T12:35:30;2.08;;;0.50;;
26484;SDS011;18083;50.560;7.262;2022-07-04T12:37:39;2.12;;;0.60;;
26484;SDS011;18083;50.560;7.262;2022-07-04T12:40:07;0.78;;;0.50;;
26484;SDS011;18083;50.560;7.262;2022-07-04T12:42:35;0.90;;;0.60;;
26484;SDS011;18083;50.560;7.262;2022-07-04T12:45:05;1.05;;;0.72;;
26484;SDS011;18083;50.560;7.262;2022-07-04T12:47:33;3.30;;;0.57;;
26484;SDS011;18083;50.560;7.262;2022-07-04T12:50:01;2.52;;;0.90;;
26484;SDS011;18083;50.560;7.262;2022-07-04T12:52:28;3.72;;;0.82;;
26484;SDS011;18083;50.560;7.262;2022-07-04T12:55:02;4.70;;;0.70;;
26484;SDS011;18083;50.560;7.262;2022-07-04T12:57:30;1.95;;;0.75;;
26484;SDS011;18083;50.560;7.262;2022-07-04T12:59:57;0.62;;;0.50;;
26484;SDS011;18083;50.560;7.262;2022-07-04T13:02:25;1.17;;;0.57;;
26484;SDS011;18083;50.560;7.262;2022-07-04T13:04:52;0.55;;;0.50;;
26484;SDS011;18083;50.560;7.262;2022-07-04T13:07:19;1.65;;;0.50;;
26484;SDS011;18083;50.560;7.262;2022-07-04T13:09:47;2.58;;;0.70;;
26484;SDS011;18083;50.560;7.262;2022-07-04T13:12:14;2.58;;;0.80;;
26484;SDS011;18083;50.560;7.262;2022-07-04T13:14:54;2.05;;;0.82;;
26484;SDS011;18083;50.560;7.262;2022-07-04T13:17:22;1.55;;;0.60;;
26484;SDS011;18083;50.560;7.262;2022-07-04T13:19:50;1.30;;;0.90;;
26484;SDS011;18083;50.560;7.262;2022-07-04T13:22:22;0.88;;;0.72;;
26484;SDS011;18083;50.560;7.262;2022-07-04T13:24:50;1.45;;;0.70;;
26484;SDS011;18083;50.560;7.262;2022-07-04T13:27:18;1.30;;;0.75;;
26484;SDS011;18083;50.560;7.262;2022-07-04T13:29:45;1.67;;;0.90;;
26484;SDS011;18083;50.560;7.262;2022-07-04T13:32:13;5.05;;;0.80;;
26484;SDS011;18083;50.560;7.262;2022-07-04T13:34:40;1.77;;;0.98;;
26484;SDS011;18083;50.560;7.262;2022-07-04T13:37:08;0.80;;;0.65;;
26484;SDS011;18083;50.560;7.262;2022-07-04T13:39:35;1.60;;;1.20;;
26484;SDS011;18083;50.560;7.262;2022-07-04T13:42:02;1.90;;;0.50;;
26484;SDS011;18083;50.560;7.262;2022-07-04T13:44:30;0.75;;;0.55;;
26484;SDS011;18083;50.560;7.262;2022-07-04T13:46:57;0.80;;;0.80;;
26484;SDS011;18083;50.560;7.262;2022-07-04T13:49:25;1.95;;;0.57;;
26484;SDS011;18083;50.560;7.262;2022-07-04T13:51:52;3.92;;;1.27;;
26484;SDS011;18083;50.560;7.262;2022-07-04T13:54:20;0.80;;;0.65;;
26484;SDS011;18083;50.560;7.262;2022-07-04T13:56:47;2.45;;;0.80;;
26484;SDS011;18083;50.560;7.262;2022-07-04T13:59:15;1.27;;;0.90;;
26484;SDS011;18083;50.560;7.262;2022-07-04T14:01:42;1.10;;;1.00;;
26484;SDS011;18083;50.560;7.262;2022-07-04T14:04:09;1.57;;;0.75;;
26484;SDS011;18083;50.560;7.262;2022-07-04T14:06:37;1.57;;;0.75;;
26484;SDS011;18083;50.560;7.262;2022-07-04T14:09:04;2.62;;;0.53;;
26484;SDS011;18083;50.560;7.262;2022-07-04T14:11:31;4.55;;;0.90;;
26484;SDS011;18083;50.560;7.262;2022-07-04T14:13:59;1.05;;;0.78;;
26484;SDS011;18083;50.560;7.262;2022-07-04T14:16:26;2.37;;;1.02;;
26484;SDS011;18083;50.560;7.262;2022-07-04T14:18:54;1.80;;;0.78;;
26484;SDS011;18083;50.560;7.262;2022-07-04T14:21:21;3.15;;;1.32;;
26484;SDS011;18083;50.560;7.262;2022-07-04T14:23:48;2.08;;;0.80;;
26484;SDS011;18083;50.560;7.262;2022-07-04T14:26:17;2.55;;;0.93;;
26484;SDS011;18083;50.560;7.262;2022-07-04T14:28:46;0.85;;;0.65;;
26484;SDS011;18083;50.560;7.262;2022-07-04T14:31:14;2.67;;;0.68;;
26484;SDS011;18083;50.560;7.262;2022-07-04T14:33:41;1.95;;;0.70;;
26484;SDS011;18083;50.560;7.262;2022-07-04T14:36:08;1.98;;;0.75;;
26484;SDS011;18083;50.560;7.262;2022-07-04T14:38:37;2.85;;;0.55;;
26484;SDS011;18083;50.560;7.262;2022-07-04T14:41:05;2.00;;;0.50;;
26484;SDS011;18083;50.560;7.262;2022-07-04T14:43:43;1.52;;;0.60;;
26484;SDS011;18083;50.560;7.262;2022-07-04T14:46:07;1.25;;;0.70;;
26484;SDS011;18083;50.560;7.262;2022-07-04T14:48:35;2.72;;;0.55;;
26484;SDS011;18083;50.560;7.262;2022-07-04T14:51:03;1.10;;;0.65;;
26484;SDS011;18083;50.560;7.262;2022-07-04T14:53:30;1.60;;;0.68;;
26484;SDS011;18083;50.560;7.262;2022-07-04T14:55:58;3.10;;;0.70;;
26484;SDS011;18083;50.560;7.262;2022-07-04T14:58:25;1.32;;;0.88;;
26484;SDS011;18083;50.560;7.262;2022-07-04T15:00:52;1.22;;;1.12;;
26484;SDS011;18083;50.560;7.262;2022-07-04T15:03:20;1.30;;;0.85;;
26484;SDS011;18083;50.560;7.262;2022-07-04T15:05:47;3.42;;;0.75;;
26484;SDS011;18083;50.560;7.262;2022-07-04T15:08:15;1.67;;;1.05;;
26484;SDS011;18083;50.560;7.262;2022-07-04T15:10:42;1.07;;;0.68;;
26484;SDS011;18083;50.560;7.262;2022-07-04T15:13:09;0.72;;;0.72;;
26484;SDS011;18083;50.560;7.262;2022-07-04T15:15:37;2.37;;;1.75;;
26484;SDS011;18083;50.560;7.262;2022-07-04T15:18:04;1.22;;;0.47;;
26484;SDS011;18083;50.560;7.262;2022-07-04T15:20:32;0.65;;;0.60;;
26484;SDS011;18083;50.560;7.262;2022-07-04T15:23:17;2.47;;;0.70;;
26484;SDS011;18083;50.560;7.262;2022-07-04T15:26:03;2.17;;;0.70;;
26484;SDS011;18083;50.560;7.262;2022-07-04T15:28:30;3.65;;;0.80;;
26484;SDS011;18083;50.560;7.262;2022-07-04T15:30:57;1.82;;;0.70;;
26484;SDS011;18083;50.560;7.262;2022-07-04T15:33:26;1.87;;;1.05;;
26484;SDS011;18083;50.560;7.262;2022-07-04T15:35:56;1.60;;;0.70;;
26484;SDS011;18083;50.560;7.262;2022-07-04T15:38:23;2.70;;;1.32;;
26484;SDS011;18083;50.560;7.262;2022-07-04T15:40:51;5.42;;;0.85;;
26484;SDS011;18083;50.560;7.262;2022-07-04T15:43:18;1.45;;;0.60;;